createdAt,value
2022-12-14T00:01:53.958Z,97023.75
2022-12-14T00:03:55.312Z,97021.47
2022-12-14T00:05:56.745Z,97020.84
2022-12-14T00:07:58.077Z,97021.16
2022-12-14T00:09:59.420Z,97017.16
2022-12-14T00:12:00.755Z,97014.75
2022-12-14T00:14:02.042Z,97007.38
2022-12-14T00:16:03.370Z,97005.97
2022-12-14T00:18:04.737Z,97003.69
2022-12-14T00:20:06.057Z,97010.81
2022-12-14T00:22:07.400Z,97004.25
2022-12-14T00:24:08.696Z,97001.03
2022-12-14T00:26:09.988Z,96992.63
2022-12-14T00:28:11.691Z,96995.03
2022-12-14T00:30:13.040Z,96992.53
2022-12-14T00:32:14.337Z,96990.81
2022-12-14T00:34:15.628Z,96990.72
2022-12-14T00:36:16.972Z,96991.38
2022-12-14T00:38:18.307Z,96987.69
2022-12-14T00:40:19.598Z,96979.81
2022-12-14T00:42:20.900Z,96975.91
2022-12-14T00:44:22.188Z,96977.16
2022-12-14T00:46:23.587Z,96976.88
2022-12-14T00:48:25.314Z,96974.75
2022-12-14T00:50:26.938Z,96974.47
2022-12-14T00:52:28.242Z,96978.44
2022-12-14T00:54:29.517Z,96973.88
2022-12-14T00:56:30.821Z,96973.66
2022-12-14T00:58:32.150Z,96979.53
2022-12-14T01:00:33.453Z,96965.81
2022-12-14T01:02:34.895Z,96961.34
2022-12-14T01:04:36.369Z,96962.25
2022-12-14T01:06:37.656Z,96960.22
2022-12-14T01:08:38.936Z,96957.91
2022-12-14T01:10:40.548Z,96970.09
2022-12-14T01:12:41.841Z,96962.63
2022-12-14T01:14:43.183Z,96966.13
2022-12-14T01:16:47.177Z,96957.69
2022-12-14T01:18:48.507Z,96965.53
2022-12-14T01:20:49.803Z,96962.41
2022-12-14T01:22:51.157Z,96960.84
2022-12-14T01:24:52.480Z,96956.78
2022-12-14T01:26:53.828Z,96958.03
2022-12-14T01:28:57.173Z,96956.69
2022-12-14T01:30:58.546Z,96960.56
2022-12-14T01:33:00.828Z,96958.34
2022-12-14T01:35:02.122Z,96950.88
2022-12-14T01:37:03.488Z,96950.25
2022-12-14T01:39:04.845Z,96946.28
2022-12-14T01:41:06.171Z,96946.50
2022-12-14T01:43:07.457Z,96945.84
2022-12-14T01:45:08.740Z,96946.78
2022-12-14T01:47:12.865Z,96942.63
2022-12-14T01:49:14.268Z,96940.09
2022-12-14T01:51:15.562Z,96936.69
2022-12-14T01:53:16.849Z,96933.81
2022-12-14T01:55:18.183Z,96936.84
2022-12-14T01:57:19.489Z,96936.53
2022-12-14T01:59:20.820Z,96937.03
2022-12-14T02:01:22.164Z,96938.41
2022-12-14T02:03:23.610Z,96937.09
2022-12-14T02:05:25.006Z,96938.41
2022-12-14T02:07:26.335Z,96930.47
2022-12-14T02:09:27.883Z,96946.25
2022-12-14T02:11:29.168Z,96934.88
2022-12-14T02:13:30.848Z,96929.72
2022-12-14T02:15:32.373Z,96937.44
2022-12-14T02:17:33.663Z,96928.03
2022-12-14T02:19:34.997Z,96928.56
2022-12-14T02:21:36.839Z,96921.50
2022-12-14T02:23:38.248Z,96917.13
2022-12-14T02:25:39.556Z,96929.78
2022-12-14T02:27:40.884Z,96922.00
2022-12-14T02:29:42.208Z,96923.13
2022-12-14T02:31:43.529Z,96922.63
2022-12-14T02:33:44.843Z,96923.78
2022-12-14T02:35:46.240Z,96929.09
2022-12-14T02:37:49.023Z,96921.66
2022-12-14T02:39:50.648Z,96925.09
2022-12-14T02:41:51.981Z,96921.78
2022-12-14T02:43:53.358Z,96923.75
2022-12-14T02:45:54.649Z,96932.53
2022-12-14T02:47:55.961Z,96938.69
2022-12-14T02:49:57.257Z,96923.78
2022-12-14T02:51:58.587Z,96928.38
2022-12-14T02:53:59.992Z,96927.72
2022-12-14T02:56:01.580Z,96926.94
2022-12-14T02:58:02.907Z,96923.03
2022-12-14T03:00:04.496Z,96918.88
2022-12-14T03:02:05.937Z,96918.09
2022-12-14T03:04:07.720Z,96914.75
2022-12-14T03:06:14.634Z,96912.19
2022-12-14T03:08:16.057Z,96914.59
2022-12-14T03:10:17.379Z,96913.56
2022-12-14T03:12:18.697Z,96902.19
2022-12-14T03:14:20.069Z,96904.41
2022-12-14T03:16:21.395Z,96908.34
2022-12-14T03:18:22.781Z,96908.06
2022-12-14T03:20:24.157Z,96902.66
2022-12-14T03:22:25.456Z,96896.31
2022-12-14T03:24:26.823Z,96900.16
2022-12-14T03:26:28.109Z,96888.72
2022-12-14T03:28:29.408Z,96889.28
2022-12-14T03:30:58.152Z,96881.44
2022-12-14T03:32:52.373Z,96877.84
2022-12-14T03:34:53.786Z,96882.91
2022-12-14T03:36:55.070Z,96880.75
2022-12-14T03:38:56.401Z,96870.44
2022-12-14T03:40:57.773Z,96875.63
2022-12-14T03:42:59.095Z,96867.81
2022-12-14T03:45:00.421Z,96868.66
2022-12-14T03:47:01.807Z,96862.41
2022-12-14T03:49:03.096Z,96864.94
2022-12-14T03:51:04.389Z,96861.22
2022-12-14T03:53:05.677Z,96858.09
2022-12-14T03:55:06.971Z,96852.38
2022-12-14T03:57:08.257Z,96854.16
2022-12-14T03:59:09.548Z,96862.34
2022-12-14T04:01:10.941Z,96853.47
2022-12-14T04:03:12.293Z,96849.78
2022-12-14T04:05:13.601Z,96839.19
2022-12-14T04:07:14.936Z,96849.72
2022-12-14T04:09:16.224Z,96845.81
2022-12-14T04:11:36.308Z,96847.88
2022-12-14T04:13:56.170Z,96851.50
2022-12-14T04:16:16.069Z,96843.38
2022-12-14T04:18:36.185Z,96837.94
2022-12-14T04:20:37.525Z,96830.81
2022-12-14T04:22:39.152Z,96832.28
2022-12-14T04:24:59.216Z,96831.41
2022-12-14T04:27:00.508Z,96832.97
2022-12-14T04:29:20.641Z,96837.06
2022-12-14T04:31:21.960Z,96822.25
2022-12-14T04:33:55.524Z,96818.63
2022-12-14T04:35:56.816Z,96804.03
2022-12-14T04:37:58.282Z,96803.09
2022-12-14T04:39:59.604Z,96806.47
2022-12-14T04:42:00.890Z,96815.03
2022-12-14T04:44:02.189Z,96802.19
2022-12-14T04:46:03.616Z,96803.84
2022-12-14T04:48:04.939Z,96806.34
2022-12-14T04:50:06.229Z,96808.19
2022-12-14T04:52:07.547Z,96799.78
2022-12-14T04:54:08.837Z,96661.47
2022-12-14T04:56:10.209Z,96801.75
2022-12-14T04:58:11.536Z,96792.50
2022-12-14T05:00:12.824Z,96796.88
2022-12-14T05:02:17.334Z,96797.22
2022-12-14T05:04:18.699Z,96792.72
2022-12-14T05:06:20.000Z,96795.72
2022-12-14T05:08:21.290Z,96785.88
2022-12-14T05:10:22.582Z,96778.66
2022-12-14T05:12:23.914Z,96771.44
2022-12-14T05:14:25.199Z,96770.06
2022-12-14T05:16:26.599Z,96768.66
2022-12-14T05:18:27.936Z,96767.28
2022-12-14T05:20:29.220Z,96764.25
2022-12-14T05:22:30.549Z,96763.63
2022-12-14T05:24:31.837Z,96758.72
2022-12-14T05:26:33.142Z,96751.19
2022-12-14T05:28:34.441Z,96751.13
2022-12-14T05:30:35.759Z,96742.47
2022-12-14T05:32:40.000Z,96741.41
2022-12-14T05:34:41.329Z,96729.13
2022-12-14T05:36:42.626Z,96732.84
2022-12-14T05:38:43.953Z,96731.56
2022-12-14T05:40:45.242Z,96731.84
2022-12-14T05:42:49.858Z,96725.38
2022-12-14T05:44:55.324Z,96720.75
2022-12-14T05:46:56.653Z,96722.25
2022-12-14T05:48:57.949Z,96723.84
2022-12-14T05:50:59.238Z,96725.31
2022-12-14T05:53:00.566Z,96725.13
2022-12-14T05:55:04.514Z,96720.63
2022-12-14T05:57:06.948Z,96729.94
2022-12-14T05:59:08.235Z,96724.63
2022-12-14T06:01:13.944Z,96725.47
2022-12-14T06:03:18.433Z,96720.22
2022-12-14T06:05:19.760Z,96715.88
2022-12-14T06:07:26.019Z,96720.09
2022-12-14T06:09:28.969Z,96717.41
2022-12-14T06:11:30.260Z,96712.31
2022-12-14T06:13:31.781Z,96711.34
2022-12-14T06:15:34.226Z,96707.97
2022-12-14T06:17:35.656Z,96702.91
2022-12-14T06:19:37.576Z,96700.50
2022-12-14T06:21:38.864Z,96705.75
2022-12-14T06:23:40.247Z,96705.16
2022-12-14T06:25:41.553Z,96707.09
2022-12-14T06:27:42.881Z,96702.22
2022-12-14T06:29:44.169Z,96699.03
2022-12-14T06:31:45.765Z,96695.00
2022-12-14T06:33:50.545Z,96684.25
2022-12-14T06:35:51.849Z,96686.28
2022-12-14T06:37:53.231Z,96687.50
2022-12-14T06:39:54.827Z,96685.31
2022-12-14T06:41:56.134Z,96679.66
2022-12-14T06:43:57.465Z,96688.41
2022-12-14T06:45:58.789Z,96690.34
2022-12-14T06:48:00.128Z,96690.47
2022-12-14T06:50:01.476Z,96688.16
2022-12-14T06:52:02.757Z,96695.97
2022-12-14T06:54:04.089Z,96694.38
2022-12-14T06:56:05.391Z,96698.72
2022-12-14T06:58:06.685Z,96696.16
2022-12-14T07:00:08.023Z,96687.59
2022-12-14T07:02:09.464Z,96692.63
2022-12-14T07:04:10.881Z,96685.50
2022-12-14T07:06:12.188Z,96677.47
2022-12-14T07:08:13.481Z,96683.84
2022-12-14T07:10:14.827Z,96684.19
2022-12-14T07:12:16.112Z,96679.41
2022-12-14T07:14:17.462Z,96684.81
2022-12-14T07:16:18.898Z,96693.59
2022-12-14T07:18:20.632Z,96691.56
2022-12-14T07:20:22.045Z,96691.03
2022-12-14T07:22:23.344Z,96677.03
2022-12-14T07:24:24.641Z,96679.25
2022-12-14T07:26:26.001Z,96678.97
2022-12-14T07:28:27.285Z,96672.13
2022-12-14T07:30:28.649Z,96666.25
2022-12-14T07:32:30.083Z,96669.69
2022-12-14T07:34:31.418Z,96671.59
2022-12-14T07:36:33.036Z,96670.06
2022-12-14T07:38:34.384Z,96540.72
2022-12-14T07:40:35.707Z,96665.56
2022-12-14T07:42:37.002Z,96665.97
2022-12-14T07:44:38.452Z,96662.84
2022-12-14T07:46:40.351Z,96662.41
2022-12-14T07:48:41.723Z,96661.00
2022-12-14T07:50:43.072Z,96652.84
2022-12-14T07:52:48.089Z,96655.72
2022-12-14T07:54:55.721Z,96660.41
2022-12-14T07:56:57.110Z,96658.97
2022-12-14T07:58:58.395Z,96659.31
2022-12-14T08:00:59.728Z,96652.81
2022-12-14T08:03:01.221Z,96647.06
2022-12-14T08:05:04.420Z,96658.34
2022-12-14T08:07:09.128Z,96650.06
2022-12-14T08:09:10.561Z,96645.09
2022-12-14T08:11:11.849Z,96647.72
2022-12-14T08:13:13.137Z,96652.06
2022-12-14T08:15:17.491Z,96649.50
2022-12-14T08:17:18.800Z,96643.47
2022-12-14T08:19:20.199Z,96643.16
2022-12-14T08:21:22.204Z,96631.81
2022-12-14T08:23:23.533Z,96623.78
2022-12-14T08:25:24.867Z,96624.03
2022-12-14T08:27:26.317Z,96624.34
2022-12-14T08:29:27.625Z,96623.97
2022-12-14T08:31:29.115Z,96628.50
2022-12-14T08:33:30.706Z,96617.97
2022-12-14T08:35:32.229Z,96627.28
2022-12-14T08:37:33.558Z,96624.56
2022-12-14T08:39:34.887Z,96626.22
2022-12-14T08:41:36.280Z,96618.56
2022-12-14T08:43:37.612Z,96620.16
2022-12-14T08:45:38.980Z,96620.03
2022-12-14T08:47:40.273Z,96615.59
2022-12-14T08:49:41.569Z,96606.28
2022-12-14T08:51:42.924Z,96607.25
2022-12-14T08:53:44.218Z,96608.09
2022-12-14T08:55:45.518Z,96601.09
2022-12-14T08:57:46.815Z,96609.50
2022-12-14T09:00:03.601Z,96597.56
2022-12-14T09:02:05.037Z,96594.19
2022-12-14T09:04:06.649Z,96592.59
2022-12-14T09:06:08.086Z,96586.75
2022-12-14T09:08:09.394Z,96596.94
2022-12-14T09:10:11.115Z,96585.16
2022-12-14T09:12:12.406Z,96591.38
2022-12-14T09:14:13.745Z,96593.34
2022-12-14T09:16:15.100Z,96579.00
2022-12-14T09:18:16.548Z,96575.75
2022-12-14T09:20:18.930Z,96568.34
2022-12-14T09:22:20.638Z,96561.75
2022-12-14T09:24:24.550Z,96561.03
2022-12-14T09:26:25.847Z,96551.03
2022-12-14T09:28:27.441Z,96549.50
2022-12-14T09:30:28.765Z,96544.53
2022-12-14T09:32:30.050Z,96537.09
2022-12-14T09:34:31.332Z,96528.00
2022-12-14T09:36:32.664Z,96530.66
2022-12-14T09:38:33.982Z,96526.53
2022-12-14T09:40:35.268Z,96531.63
2022-12-14T09:42:36.639Z,96516.47
2022-12-14T09:44:37.971Z,96524.19
2022-12-14T09:46:39.296Z,96525.03
2022-12-14T09:48:40.607Z,96373.44
2022-12-14T09:50:41.923Z,96522.47
2022-12-14T09:52:43.299Z,96518.88
2022-12-14T09:54:44.789Z,96511.09
2022-12-14T09:56:51.281Z,96511.16
2022-12-14T09:58:52.896Z,96505.88
2022-12-14T10:00:54.293Z,96506.41
2022-12-14T10:02:56.906Z,96498.56
2022-12-14T10:05:00.571Z,96367.91
2022-12-14T10:07:01.860Z,96499.22
2022-12-14T10:09:03.537Z,96496.53
2022-12-14T10:11:05.121Z,96498.81
2022-12-14T10:13:07.588Z,96491.09
2022-12-14T10:15:09.026Z,96480.81
2022-12-14T10:17:10.386Z,96475.63
2022-12-14T10:19:11.907Z,96472.94
2022-12-14T10:21:16.366Z,96466.72
2022-12-14T10:23:22.776Z,96454.84
2022-12-14T10:25:24.883Z,96449.63
2022-12-14T10:27:26.180Z,96454.81
2022-12-14T10:29:27.507Z,96442.72
2022-12-14T10:31:28.828Z,96427.41
2022-12-14T10:33:30.227Z,96413.81
2022-12-14T10:35:31.524Z,96420.66
2022-12-14T10:37:33.508Z,96430.72
2022-12-14T10:39:34.908Z,96423.06
2022-12-14T10:41:36.261Z,96419.59
2022-12-14T10:43:37.562Z,96434.25
2022-12-14T10:45:46.148Z,96432.44
2022-12-14T10:47:47.513Z,96435.06
2022-12-14T10:49:48.803Z,96443.63
2022-12-14T10:51:50.103Z,96443.00
2022-12-14T10:53:51.404Z,96444.66
2022-12-14T10:55:52.730Z,96431.88
2022-12-14T10:57:54.022Z,96424.31
2022-12-14T11:00:07.941Z,96417.63
2022-12-14T11:02:13.236Z,96410.06
2022-12-14T11:04:14.708Z,96410.13
2022-12-14T11:06:16.157Z,96398.19
2022-12-14T11:08:17.448Z,96388.13
2022-12-14T11:10:19.015Z,96390.66
2022-12-14T11:12:20.555Z,96398.25
2022-12-14T11:14:21.941Z,96389.78
2022-12-14T11:16:23.318Z,96388.25
2022-12-14T11:18:24.778Z,96384.88
2022-12-14T11:20:26.128Z,96387.38
2022-12-14T11:22:27.437Z,96393.34
2022-12-14T11:24:28.733Z,96380.75
2022-12-14T11:26:30.023Z,96374.88
2022-12-14T11:28:36.977Z,96380.00
2022-12-14T11:30:39.365Z,96380.75
2022-12-14T11:32:40.664Z,96375.72
2022-12-14T11:34:42.256Z,96374.81
2022-12-14T11:36:43.557Z,96368.75
2022-12-14T11:38:44.841Z,96375.50
2022-12-14T11:40:46.140Z,96372.09
2022-12-14T11:42:47.838Z,96372.09
2022-12-14T11:44:49.916Z,96374.59
2022-12-14T11:46:51.388Z,96372.88
2022-12-14T11:48:52.793Z,96371.22
2022-12-14T11:50:54.178Z,96374.66
2022-12-14T11:52:55.469Z,96373.91
2022-12-14T11:54:56.759Z,96381.44
2022-12-14T11:56:58.104Z,96370.47
2022-12-14T11:58:59.402Z,96375.63
2022-12-14T12:01:00.723Z,96355.09
2022-12-14T12:03:02.242Z,96363.56
2022-12-14T12:05:03.663Z,96363.66
2022-12-14T12:07:04.993Z,96356.78
2022-12-14T12:09:06.301Z,96369.66
2022-12-14T12:11:07.632Z,96367.16
2022-12-14T12:13:08.926Z,96361.25
2022-12-14T12:15:10.256Z,96362.00
2022-12-14T12:17:11.660Z,96355.38
2022-12-14T12:19:13.030Z,96349.47
2022-12-14T12:21:14.338Z,96351.31
2022-12-14T12:23:15.660Z,96345.25
2022-12-14T12:25:26.741Z,96347.88
2022-12-14T12:27:28.984Z,96344.56
2022-12-14T12:29:30.288Z,96335.19
2022-12-14T12:31:31.662Z,96348.91
2022-12-14T12:33:33.141Z,96335.25
2022-12-14T12:35:34.435Z,96338.78
2022-12-14T12:37:36.333Z,96332.09
2022-12-14T12:39:37.643Z,96337.13
2022-12-14T12:41:38.940Z,96332.03
2022-12-14T12:43:40.229Z,96333.88
2022-12-14T12:45:41.614Z,96322.84
2022-12-14T12:47:47.522Z,96316.94
2022-12-14T12:49:49.473Z,96318.53
2022-12-14T12:51:50.762Z,96315.81
2022-12-14T12:53:52.041Z,96302.25
2022-12-14T12:55:53.644Z,96309.16
2022-12-14T12:57:54.929Z,96302.16
2022-12-14T12:59:56.267Z,96295.31
2022-12-14T13:01:57.688Z,96292.63
2022-12-14T13:03:59.112Z,96296.00
2022-12-14T13:06:00.401Z,96285.66
2022-12-14T13:08:01.736Z,96285.50
2022-12-14T13:10:05.792Z,96282.13
2022-12-14T13:12:07.573Z,96286.41
2022-12-14T13:14:08.877Z,96280.38
2022-12-14T13:16:10.203Z,96275.38
2022-12-14T13:18:12.236Z,96277.84
2022-12-14T13:20:13.689Z,96274.41
2022-12-14T13:22:15.306Z,96287.16
2022-12-14T13:24:16.714Z,96288.03
2022-12-14T13:26:48.532Z,96289.19
2022-12-14T13:28:42.328Z,96283.69
2022-12-14T13:30:43.651Z,96278.34
2022-12-14T13:32:44.977Z,96288.94
2022-12-14T13:34:46.270Z,96293.56
2022-12-14T13:36:47.705Z,96288.75
2022-12-14T13:38:48.992Z,96285.50
2022-12-14T13:40:50.281Z,96288.97
2022-12-14T13:42:52.534Z,96295.78
2022-12-14T13:44:53.879Z,96293.88
2022-12-14T13:46:55.273Z,96293.84
2022-12-14T13:48:56.700Z,96297.88
2022-12-14T13:51:01.828Z,96281.56
2022-12-14T13:53:03.925Z,96281.28
2022-12-14T13:55:05.443Z,96285.19
2022-12-14T13:57:06.797Z,96288.47
2022-12-14T13:59:08.089Z,96279.72
2022-12-14T14:01:09.612Z,96272.59
2022-12-14T14:03:11.141Z,96270.69
2022-12-14T14:05:15.462Z,96268.09
2022-12-14T14:07:16.752Z,96258.56
2022-12-14T14:09:18.092Z,96259.22
2022-12-14T14:11:38.390Z,96260.66
2022-12-14T14:13:40.417Z,96238.28
2022-12-14T14:16:04.048Z,96243.84
2022-12-14T14:18:03.092Z,96239.56
2022-12-14T14:20:05.138Z,96239.41
2022-12-14T14:22:23.854Z,96237.84
2022-12-14T14:24:27.637Z,96239.50
2022-12-14T14:26:29.040Z,96238.81
2022-12-14T14:28:30.629Z,96243.00
2022-12-14T14:30:32.307Z,96242.13
2022-12-14T14:32:33.872Z,96232.06
2022-12-14T14:34:47.429Z,96232.00
2022-12-14T14:36:48.728Z,96220.81
2022-12-14T14:38:51.182Z,96218.16
2022-12-14T14:41:15.610Z,96216.59
2022-12-14T14:43:16.541Z,96215.03
2022-12-14T14:45:17.840Z,96218.66
2022-12-14T14:47:19.488Z,96221.78
2022-12-14T14:49:20.895Z,96221.78
2022-12-14T14:51:22.219Z,96222.75
2022-12-14T14:53:23.506Z,96224.63
2022-12-14T14:55:51.410Z,96223.13
2022-12-14T14:57:46.284Z,96224.88
2022-12-14T14:59:51.198Z,96229.78
2022-12-14T15:01:53.083Z,96227.25
2022-12-14T15:03:55.244Z,96223.06
2022-12-14T15:05:56.791Z,96228.31
2022-12-14T15:07:58.648Z,96233.66
2022-12-14T15:09:59.969Z,96227.72
2022-12-14T15:12:01.419Z,96236.56
2022-12-14T15:14:02.793Z,96229.28
2022-12-14T15:16:04.135Z,96228.44
2022-12-14T15:18:05.542Z,96226.28
2022-12-14T15:20:06.844Z,96221.28
2022-12-14T15:22:08.170Z,96227.41
2022-12-14T15:24:09.473Z,96235.19
2022-12-14T15:26:16.226Z,96221.97
2022-12-14T15:28:18.848Z,96214.13
2022-12-14T15:30:20.150Z,96217.03
2022-12-14T15:32:21.562Z,96214.41
2022-12-14T15:34:22.849Z,96217.84
2022-12-14T15:36:24.138Z,96218.38
2022-12-14T15:38:25.476Z,96220.09
2022-12-14T15:40:26.807Z,96207.50
2022-12-14T15:42:28.155Z,96211.41
2022-12-14T15:44:29.506Z,96211.91
2022-12-14T15:46:30.853Z,96215.38
2022-12-14T15:48:34.045Z,96220.84
2022-12-14T15:50:35.374Z,96221.03
2022-12-14T15:52:36.656Z,96197.91
2022-12-14T15:54:38.182Z,96219.34
2022-12-14T15:56:39.812Z,96221.09
2022-12-14T15:58:41.132Z,96216.91
2022-12-14T16:00:45.529Z,96212.81
2022-12-14T16:02:49.897Z,96213.06
2022-12-14T16:04:51.319Z,96205.41
2022-12-14T16:06:52.633Z,96204.66
2022-12-14T16:08:55.080Z,96191.13
2022-12-14T16:10:56.377Z,96201.75
2022-12-14T16:13:03.513Z,96197.72
2022-12-14T16:15:04.810Z,96193.53
2022-12-14T16:17:06.223Z,96187.84
2022-12-14T16:19:25.923Z,96192.63
2022-12-14T16:21:28.325Z,96190.97
2022-12-14T16:23:30.183Z,96190.81
2022-12-14T16:25:32.382Z,96192.22
2022-12-14T16:27:33.674Z,96194.34
2022-12-14T16:29:35.099Z,96190.44
2022-12-14T16:31:37.111Z,96188.06
2022-12-14T16:33:38.440Z,96195.50
2022-12-14T16:35:40.228Z,96186.78
2022-12-14T16:37:41.572Z,96190.44
2022-12-14T16:39:42.853Z,96195.69
2022-12-14T16:41:47.130Z,96195.53
2022-12-14T16:43:49.452Z,96199.75
2022-12-14T16:45:53.764Z,96198.75
2022-12-14T16:47:55.310Z,96195.13
2022-12-14T16:49:56.669Z,96196.63
2022-12-14T16:52:07.317Z,96200.59
2022-12-14T16:54:09.542Z,96198.53
2022-12-14T16:56:13.501Z,96188.81
2022-12-14T16:58:14.789Z,96198.84
2022-12-14T17:00:16.085Z,96189.59
2022-12-14T17:02:18.239Z,96200.53
2022-12-14T17:04:19.767Z,96195.34
2022-12-14T17:06:21.083Z,96191.06
2022-12-14T17:08:25.337Z,96194.53
2022-12-14T17:10:27.094Z,96195.25
2022-12-14T17:12:28.419Z,96194.66
2022-12-14T17:14:29.745Z,96183.25
2022-12-14T17:16:31.053Z,96187.53
2022-12-14T17:18:32.640Z,96189.25
2022-12-14T17:20:36.231Z,96191.81
2022-12-14T17:22:37.569Z,96196.53
2022-12-14T17:24:38.913Z,96195.97
2022-12-14T17:26:40.212Z,96193.41
2022-12-14T17:28:41.551Z,96188.31
2022-12-14T17:30:43.022Z,96184.44
2022-12-14T17:32:44.420Z,96176.72
2022-12-14T17:34:45.738Z,96180.00
2022-12-14T17:36:47.155Z,96170.84
2022-12-14T17:38:48.535Z,96174.06
2022-12-14T17:40:49.897Z,96176.72
2022-12-14T17:42:51.239Z,96182.50
2022-12-14T17:44:52.597Z,96184.22
2022-12-14T17:46:53.912Z,96184.72
2022-12-14T17:49:02.878Z,96185.94
2022-12-14T17:51:10.124Z,96184.53
2022-12-14T17:53:11.444Z,96180.50
2022-12-14T17:55:12.862Z,96185.31
2022-12-14T17:57:14.213Z,96186.84
2022-12-14T17:59:15.523Z,96194.97
2022-12-14T18:01:16.977Z,96198.09
2022-12-14T18:03:18.503Z,96190.28
2022-12-14T18:05:19.930Z,96202.84
2022-12-14T18:07:24.085Z,96203.91
2022-12-14T18:09:25.404Z,96206.41
2022-12-14T18:11:27.125Z,96208.13
2022-12-14T18:13:31.178Z,96209.09
2022-12-14T18:15:38.806Z,96210.00
2022-12-14T18:17:40.121Z,96217.25
2022-12-14T18:19:41.606Z,96214.06
2022-12-14T18:21:42.909Z,96204.06
2022-12-14T18:23:45.790Z,96206.13
2022-12-14T18:25:48.023Z,96205.00
2022-12-14T18:27:50.333Z,96198.38
2022-12-14T18:29:54.201Z,96209.84
2022-12-14T18:31:55.595Z,96215.63
2022-12-14T18:33:56.955Z,96217.09
2022-12-14T18:35:58.296Z,96211.03
2022-12-14T18:37:59.594Z,96199.72
2022-12-14T18:40:03.655Z,96201.75
2022-12-14T18:42:05.263Z,96205.94
2022-12-14T18:44:06.650Z,96211.81
2022-12-14T18:46:08.015Z,96217.03
2022-12-14T18:48:18.223Z,96217.50
2022-12-14T18:50:19.549Z,96220.00
2022-12-14T18:52:20.915Z,96217.28
2022-12-14T18:54:22.196Z,96214.25
2022-12-14T18:56:23.789Z,96219.75
2022-12-14T18:58:25.131Z,96213.88
2022-12-14T19:00:26.476Z,96214.03
2022-12-14T19:02:28.851Z,96219.16
2022-12-14T19:04:30.373Z,96232.22
2022-12-14T19:06:46.955Z,96232.22
2022-12-14T19:08:51.015Z,96229.97
2022-12-14T19:10:52.305Z,96231.91
2022-12-14T19:13:02.377Z,96233.22
2022-12-14T19:15:03.657Z,96226.59
2022-12-14T19:17:07.718Z,96228.19
2022-12-14T19:19:09.039Z,96233.53
2022-12-14T19:21:10.521Z,96232.13
2022-12-14T19:23:14.776Z,96233.34
2022-12-14T19:25:16.103Z,96233.78
2022-12-14T19:27:30.200Z,96223.63
2022-12-14T19:29:38.764Z,96234.41
2022-12-14T19:31:40.103Z,96235.41
2022-12-14T19:33:41.473Z,96246.03
2022-12-14T19:35:43.101Z,96247.31
2022-12-14T19:37:44.506Z,96251.50
2022-12-14T19:39:49.540Z,96246.03
2022-12-14T19:41:50.893Z,96253.31
2022-12-14T19:43:55.128Z,96252.84
2022-12-14T19:45:56.493Z,96253.00
2022-12-14T19:47:57.788Z,96249.56
2022-12-14T19:50:01.754Z,96256.06
2022-12-14T19:52:05.749Z,96260.59
2022-12-14T19:54:07.078Z,96261.72
2022-12-14T19:56:08.586Z,96261.78
2022-12-14T19:58:09.941Z,96260.16
2022-12-14T20:00:11.253Z,96262.91
2022-12-14T20:02:13.038Z,96265.84
2022-12-14T20:04:14.544Z,96268.81
2022-12-14T20:06:15.867Z,96267.44
2022-12-14T20:08:17.246Z,96272.84
2022-12-14T20:10:18.582Z,96290.31
2022-12-14T20:12:22.918Z,96282.22
2022-12-14T20:14:27.189Z,96280.06
2022-12-14T20:16:28.737Z,96274.63
2022-12-14T20:18:30.114Z,96274.19
2022-12-14T20:20:31.440Z,96271.56
2022-12-14T20:22:33.103Z,96275.75
2022-12-14T20:24:34.394Z,96278.56
2022-12-14T20:26:35.735Z,96276.00
2022-12-14T20:28:40.071Z,96270.16
2022-12-14T20:30:41.378Z,96268.97
2022-12-14T20:32:42.677Z,96276.63
2022-12-14T20:34:44.024Z,96280.38
2022-12-14T20:36:45.316Z,96288.31
2022-12-14T20:38:49.534Z,96289.72
2022-12-14T20:40:50.852Z,96279.81
2022-12-14T20:42:52.144Z,96291.84
2022-12-14T20:44:53.469Z,96288.97
2022-12-14T20:46:54.855Z,96284.66
2022-12-14T20:48:56.823Z,96297.13
2022-12-14T20:50:59.348Z,96291.34
2022-12-14T20:53:00.911Z,96294.84
2022-12-14T20:55:02.220Z,96297.09
2022-12-14T20:57:07.485Z,96290.47
2022-12-14T20:59:08.829Z,96295.47
2022-12-14T21:01:10.208Z,96293.41
2022-12-14T21:03:11.841Z,96289.50
2022-12-14T21:05:13.217Z,96300.97
2022-12-14T21:07:14.640Z,96289.59
2022-12-14T21:09:15.980Z,96290.94
2022-12-14T21:11:35.872Z,96296.66
2022-12-14T21:13:40.217Z,96298.41
2022-12-14T21:15:42.406Z,96288.34
2022-12-14T21:17:43.756Z,96282.88
2022-12-14T21:19:45.044Z,96282.31
2022-12-14T21:21:51.678Z,96283.16
2022-12-14T21:23:54.711Z,96293.00
2022-12-14T21:25:56.143Z,96284.75
2022-12-14T21:27:57.498Z,96286.56
2022-12-14T21:30:00.140Z,96294.44
2022-12-14T21:32:01.567Z,96289.84
2022-12-14T21:34:02.889Z,96301.47
2022-12-14T21:36:04.212Z,96298.59
2022-12-14T21:38:05.543Z,96299.28
2022-12-14T21:40:06.839Z,96292.50
2022-12-14T21:42:13.022Z,96294.09
2022-12-14T21:44:14.740Z,96295.00
2022-12-14T21:46:18.936Z,96286.34
2022-12-14T21:48:20.326Z,96298.28
2022-12-14T21:50:21.631Z,96297.44
2022-12-14T21:52:23.043Z,96300.09
2022-12-14T21:54:24.389Z,96295.81
2022-12-14T21:56:44.265Z,96301.91
2022-12-14T21:58:49.855Z,96310.47
2022-12-14T22:00:54.337Z,96307.41
2022-12-14T22:02:55.772Z,96302.38
2022-12-14T22:04:57.209Z,96312.91
2022-12-14T22:06:58.565Z,96305.16
2022-12-14T22:08:59.992Z,96307.13
2022-12-14T22:11:01.340Z,96316.72
2022-12-14T22:13:02.741Z,96320.50
2022-12-14T22:15:04.040Z,96323.91
2022-12-14T22:17:05.427Z,96333.28
2022-12-14T22:19:06.868Z,96334.41
2022-12-14T22:21:08.181Z,96336.06
2022-12-14T22:23:09.550Z,96336.50
2022-12-14T22:25:10.890Z,96342.84
2022-12-14T22:27:12.245Z,96356.69
2022-12-14T22:29:13.594Z,96356.22
2022-12-14T22:31:14.895Z,96359.91
2022-12-14T22:33:16.188Z,96352.63
2022-12-14T22:35:18.187Z,96354.69
2022-12-14T22:37:19.648Z,96356.66
2022-12-14T22:39:21.005Z,96359.38
2022-12-14T22:41:22.368Z,96352.72
2022-12-14T22:43:28.841Z,96351.69
2022-12-14T22:45:32.003Z,96377.13
2022-12-14T22:47:33.383Z,96371.88
2022-12-14T22:49:34.709Z,96360.00
2022-12-14T22:51:36.000Z,96363.09
2022-12-14T22:53:37.288Z,96362.22
2022-12-14T22:55:38.680Z,96369.69
2022-12-14T22:57:41.721Z,96363.47
2022-12-14T22:59:43.169Z,96358.94
2022-12-14T23:01:49.543Z,96357.72
2022-12-14T23:03:51.647Z,96363.28
2022-12-14T23:05:58.755Z,96363.16
2022-12-14T23:08:03.169Z,96362.78
2022-12-14T23:10:23.208Z,96372.81
2022-12-14T23:12:42.969Z,96379.69
2022-12-14T23:15:02.865Z,96377.81
2022-12-14T23:17:22.669Z,96372.56
2022-12-14T23:19:42.585Z,96376.69
2022-12-14T23:22:02.471Z,96381.06
2022-12-14T23:24:22.473Z,96380.31
2022-12-14T23:26:42.401Z,96375.34
2022-12-14T23:29:02.334Z,96380.59
2022-12-14T23:31:22.362Z,96388.31
2022-12-14T23:33:42.590Z,96380.00
2022-12-14T23:36:02.463Z,96376.84
2022-12-14T23:38:22.506Z,96376.19
2022-12-14T23:40:42.430Z,96367.19
2022-12-14T23:43:02.396Z,96365.69
2022-12-14T23:45:22.355Z,96370.09
2022-12-14T23:47:42.246Z,96383.75
2022-12-14T23:50:02.197Z,96375.34
2022-12-14T23:52:22.033Z,96377.91
2022-12-14T23:54:41.712Z,96377.91
2022-12-14T23:57:01.534Z,96384.13
2022-12-14T23:59:24.879Z,96385.31
